Shenzhen Bao'an International Airport
ZGSZ : now visible

Airfield :











YOU CAN JOIN US ON...

 
LOGIN :

Register | Disclaimer

   EN    FR    IT 

 









Legend :    VFR   Marginal VFR   IFR   Intensive IFR   Very Intensive IFR
Visi :
Ceiling :
>= 8 km
>= 3000ft
5 to 8 km
1000 to 3000 ft
1500m to 5 km
500 to 1000 ft
800 to 1500m
200 to 500 ft
< 800m
< 200 ft
Symbols :   Thunderstorms  Fog  Heavy snow  Heavy precipitations  Wind > 20 kt







- Airport Elevation : 13 ft
- IATA code : SZX


ZGSZ - Shenzhen Bao'an International

CURRENT METAR :
  • 201400Z 15004MPS 9999 FEW036 23/21 Q1018 NOSIG

EXPIRED METARs :
  • 201300Z 16004MPS 9999 SCT036 24/21 Q1018 NOSIG
  • 201200Z 16004MPS 9999 SCT036 23/21 Q1018 NOSIG

TAF TAF ZGSZ
Valid from the 20 at 12:00 until the 21 at 12:00 UTC


200914Z 2012/2112 12004MPS 6000 BKN030 TX26/2106Z TN21/2022Z
TEMPO 2102/2108 30006G12MPS 2500 TSRA SCT010 FEW020CB OVC033
ZGZU FIR / Asia



MET'MAP, your aeronautical weather chart ! - Copyright ORBIFLY December 2007 - Disclaimer

ORBIFLY MET'MAP TEAM :

Programming & Development : Alexandra Zaïnal
Concept & Development : Baudouin d'Aumeries
Co-Development & Prog : Marc-Olivier Méhu
Technical & hardware support : Manuel Goepfert

Contact : metmap@orbifly.com




SOURCES & CREDITS :

   NOAA       Earth
Advisory